Time;durP1;ratioP1;P1;durP2;ratioP2;P2;SDS_P1;SDS_P2;PMS_P1;PMS_P2;Temp;Humidity;BMP_temperature;BMP_pressure;BME280_temperature;BME280_humidity;BME280_pressure;Samples;Min_cycle;Max_cycle;Signal;HPM_P1;HPM_P2
2023/03/11 00:00:30;;;;;;;30.03;22.73;;;;;;;;;;5051466;28;20049;-65
2023/03/11 00:02:58;;;;;;;27.30;21.60;;;;;;;;;;5050990;28;20293;-65
2023/03/11 00:05:24;;;;;;;;;;;;;;;;;;5051703;28;20053;-65
2023/03/11 00:07:52;;;;;;;21.35;19.05;;;;;;;;;;5051080;28;19987;-64
2023/03/11 00:10:20;;;;;;;20.65;18.45;;;;;;;;;;5042065;28;20061;-64
2023/03/11 00:12:46;;;;;;;;;;;;;;;;;;5045812;28;20516;-65
2023/03/11 00:15:12;;;;;;;27.67;19.58;;;;;;;;;;5051202;28;19925;-65
2023/03/11 00:17:39;;;;;;;23.50;19.30;;;;;;;;;;5051178;28;20041;-64
2023/03/11 00:20:07;;;;;;;22.02;19.40;;;;;;;;;;5051032;28;20045;-65
2023/03/11 00:22:33;;;;;;;;;;;;;;;;;;5048739;28;20044;-65
2023/03/11 00:24:59;;;;;;;23.60;19.60;;;;;;;;;;5051068;28;19920;-65
2023/03/11 00:27:26;;;;;;;25.08;19.20;;;;;;;;;;5051156;28;20052;-65
2023/03/11 00:29:52;;;;;;;21.98;19.35;;;;;;;;;;5050834;28;20057;-65
2023/03/11 00:32:18;;;;;;;23.15;19.90;;;;;;;;;;5050792;28;20060;-65
2023/03/11 00:34:45;;;;;;;22.42;20.02;;;;;;;;;;5048922;28;20057;-65
2023/03/11 00:37:11;;;;;;;21.60;17.08;;;;;;;;;;5050682;28;20045;-65
2023/03/11 00:39:37;;;;;;;19.83;17.73;;;;;;;;;;5050703;28;20051;-64
2023/03/11 00:42:04;;;;;;;21.25;17.38;;;;;;;;;;5050828;28;20099;-64
2023/03/11 00:44:30;;;;;;;20.05;16.95;;;;;;;;;;5050955;28;20051;-64
2023/03/11 00:46:57;;;;;;;24.98;20.52;;;;;;;;;;5049458;28;20414;-65
2023/03/11 00:49:23;;;;;;;26.85;20.85;;;;;;;;;;5043268;28;20053;-65
2023/03/11 00:51:49;;;;;;;24.50;21.20;;;;;;;;;;5039843;28;20063;-65
2023/03/11 00:54:16;;;;;;;19.95;17.90;;;;;;;;;;5034192;28;20045;-65
2023/03/11 00:56:42;;;;;;;23.38;19.65;;;;;;;;;;5050274;28;20053;-65
2023/03/11 00:59:08;;;;;;;20.00;17.40;;;;;;;;;;5049232;28;20049;-65
2023/03/11 01:01:35;;;;;;;21.10;17.85;;;;;;;;;;5046494;28;20041;-65
2023/03/11 01:04:01;;;;;;;18.55;16.65;;;;;;;;;;5050743;28;20053;-65
2023/03/11 01:06:28;;;;;;;19.48;17.20;;;;;;;;;;5044721;28;20041;-65
2023/03/11 01:09:09;;;;;;;21.60;18.30;;;;;;;;;;5048409;28;20124;-65
2023/03/11 01:11:36;;;;;;;20.65;17.95;;;;;;;;;;5047037;28;20048;-65
2023/03/11 01:14:03;;;;;;;20.85;17.50;;;;;;;;;;5044028;28;20052;-65
2023/03/11 01:16:29;;;;;;;19.90;17.75;;;;;;;;;;5040391;28;20049;-65
2023/03/11 01:18:55;;;;;;;20.35;17.58;;;;;;;;;;5050813;28;20068;-65
2023/03/11 01:21:22;;;;;;;19.13;17.02;;;;;;;;;;5038937;28;20042;-65
2023/03/11 01:23:48;;;;;;;18.88;16.73;;;;;;;;;;5052948;28;20498;-65
2023/03/11 01:26:14;;;;;;;19.55;16.80;;;;;;;;;;5040181;28;20049;-65
2023/03/11 01:28:41;;;;;;;19.60;16.50;;;;;;;;;;5054598;28;20048;-65
2023/03/11 01:31:08;;;;;;;20.92;17.40;;;;;;;;;;5045087;28;20081;-65
2023/03/11 01:33:34;;;;;;;20.13;16.90;;;;;;;;;;5054687;28;20053;-65
2023/03/11 01:36:01;;;;;;;20.85;17.52;;;;;;;;;;5036423;28;20456;-65
2023/03/11 01:38:27;;;;;;;19.50;17.38;;;;;;;;;;5053804;28;20053;-65
2023/03/11 01:40:54;;;;;;;21.50;17.25;;;;;;;;;;5040824;28;20510;-65
2023/03/11 01:43:38;;;;;;;20.25;17.60;;;;;;;;;;5053311;28;20505;-65
2023/03/11 01:46:11;;;;;;;23.85;19.92;;;;;;;;;;5041117;28;20049;-65
2023/03/11 01:48:37;;;;;;;20.50;18.45;;;;;;;;;;5054362;28;20057;-65
2023/03/11 01:51:04;;;;;;;20.63;18.27;;;;;;;;;;5039716;28;20140;-65
2023/03/11 01:53:31;;;;;;;20.83;18.63;;;;;;;;;;5054245;28;20049;-65
2023/03/11 01:55:58;;;;;;;20.55;18.35;;;;;;;;;;5038825;28;20050;-65
2023/03/11 01:58:26;;;;;;;20.73;18.27;;;;;;;;;;5054201;28;20040;-65
2023/03/11 02:00:54;;;;;;;19.95;17.58;;;;;;;;;;5039352;28;20049;-65
2023/03/11 02:03:24;;;;;;;21.33;18.13;;;;;;;;;;5053770;28;20497;-65
2023/03/11 02:05:51;;;;;;;18.38;16.48;;;;;;;;;;5051118;28;20481;-65
2023/03/11 02:08:18;;;;;;;18.80;16.83;;;;;;;;;;5053833;28;20056;-65
2023/03/11 02:10:45;;;;;;;18.75;16.75;;;;;;;;;;5049664;28;20063;-65
2023/03/11 02:13:11;;;;;;;18.30;16.40;;;;;;;;;;5053873;28;20055;-65
2023/03/11 02:15:38;;;;;;;19.38;17.15;;;;;;;;;;5049299;28;20657;-65
2023/03/11 02:18:06;;;;;;;17.98;16.08;;;;;;;;;;5053689;28;20048;-65
2023/03/11 02:20:46;;;;;;;18.95;16.98;;;;;;;;;;5046073;28;20051;-65
2023/03/11 02:23:13;;;;;;;20.27;16.88;;;;;;;;;;5049614;28;20052;-65
2023/03/11 02:25:56;;;;;;;19.08;17.17;;;;;;;;;;5045446;28;20037;-65
2023/03/11 02:28:24;;;;;;;18.45;16.55;;;;;;;;;;5053455;28;20076;-65
2023/03/11 02:30:51;;;;;;;19.38;16.20;;;;;;;;;;5043909;28;20064;-65
2023/03/11 02:33:17;;;;;;;18.23;16.33;;;;;;;;;;5053195;28;20048;-65
2023/03/11 02:35:44;;;;;;;17.10;15.32;;;;;;;;;;5038513;28;20049;-65
2023/03/11 02:38:10;;;;;;;18.40;16.27;;;;;;;;;;5053501;28;20048;-65
2023/03/11 02:40:47;;;;;;;18.38;16.23;;;;;;;;;;5038920;28;20092;-65
2023/03/11 02:43:15;;;;;;;17.95;16.15;;;;;;;;;;5040096;28;20056;-65
2023/03/11 02:45:42;;;;;;;17.30;15.43;;;;;;;;;;5038573;28;20053;-65
2023/03/11 02:48:10;;;;;;;18.13;16.17;;;;;;;;;;5052054;28;20052;-65
2023/03/11 02:50:37;;;;;;;17.55;15.60;;;;;;;;;;5050002;28;20065;-65
2023/03/11 02:53:04;;;;;;;17.95;15.88;;;;;;;;;;5053113;28;20053;-65
2023/03/11 02:55:31;;;;;;;16.98;15.18;;;;;;;;;;5049743;28;20052;-65
2023/03/11 02:57:57;;;;;;;17.38;14.55;;;;;;;;;;5052546;28;20055;-65
2023/03/11 03:00:23;;;;;;;17.67;15.52;;;;;;;;;;5047786;28;20493;-65
2023/03/11 03:02:51;;;;;;;19.65;16.83;;;;;;;;;;5052698;28;20044;-65
2023/03/11 03:05:19;;;;;;;19.58;15.80;;;;;;;;;;5047273;28;20049;-65
2023/03/11 03:07:49;;;;;;;17.08;15.27;;;;;;;;;;5052627;28;20135;-65
2023/03/11 03:10:16;;;;;;;18.08;15.98;;;;;;;;;;5046360;28;20378;-65
2023/03/11 03:12:42;;;;;;;18.60;16.60;;;;;;;;;;5052548;28;20049;-65
2023/03/11 03:15:09;;;;;;;18.25;16.33;;;;;;;;;;5045137;28;20141;-65
2023/03/11 03:17:36;;;;;;;18.83;16.92;;;;;;;;;;5052353;28;20481;-65
2023/03/11 03:20:06;;;;;;;18.88;16.98;;;;;;;;;;5038649;28;20041;-65
2023/03/11 03:22:32;;;;;;;18.98;16.88;;;;;;;;;;5044673;28;20059;-65
2023/03/11 03:24:58;;;;;;;18.98;16.95;;;;;;;;;;5043553;28;20044;-65
2023/03/11 03:27:25;;;;;;;16.52;14.80;;;;;;;;;;5052077;28;20041;-65
2023/03/11 03:29:51;;;;;;;18.75;16.25;;;;;;;;;;5039373;28;20048;-65
2023/03/11 03:32:17;;;;;;;19.35;16.42;;;;;;;;;;5048361;28;20055;-65
2023/03/11 03:34:44;;;;;;;17.77;15.48;;;;;;;;;;5045514;28;20124;-65
2023/03/11 03:37:10;;;;;;;17.23;15.55;;;;;;;;;;5047551;28;20052;-65
2023/03/11 03:39:37;;;;;;;17.83;15.73;;;;;;;;;;5042933;28;20046;-65
2023/03/11 03:42:03;;;;;;;17.80;16.00;;;;;;;;;;5039015;28;20059;-65
2023/03/11 03:44:29;;;;;;;17.83;15.82;;;;;;;;;;5044721;28;20050;-65
2023/03/11 03:46:56;;;;;;;21.13;15.68;;;;;;;;;;5034520;28;20055;-65
2023/03/11 03:49:22;;;;;;;17.25;15.45;;;;;;;;;;5048140;28;20044;-65
2023/03/11 03:51:48;;;;;;;18.90;15.68;;;;;;;;;;5040422;28;20417;-65
2023/03/11 03:54:15;;;;;;;17.05;15.20;;;;;;;;;;5048945;28;20059;-65
2023/03/11 03:56:41;;;;;;;16.90;15.10;;;;;;;;;;5027789;28;20045;-65
2023/03/11 03:59:07;;;;;;;16.75;14.98;;;;;;;;;;5050277;28;20049;-65
2023/03/11 04:01:34;;;;;;;16.65;14.40;;;;;;;;;;5024457;28;20146;-65
2023/03/11 04:04:00;;;;;;;16.17;14.45;;;;;;;;;;5052037;28;20053;-65
2023/03/11 04:06:27;;;;;;;16.25;14.65;;;;;;;;;;5048701;28;20263;-65
2023/03/11 04:08:54;;;;;;;16.40;14.70;;;;;;;;;;5051964;28;20130;-65
2023/03/11 04:11:20;;;;;;;17.73;14.73;;;;;;;;;;5048279;28;20057;-65
2023/03/11 04:13:47;;;;;;;16.35;14.65;;;;;;;;;;5051123;28;20132;-65
2023/03/11 04:16:15;;;;;;;16.90;14.82;;;;;;;;;;5047078;28;20469;-65
2023/03/11 04:18:42;;;;;;;18.20;14.73;;;;;;;;;;5051685;28;20053;-65
2023/03/11 04:21:08;;;;;;;17.05;14.70;;;;;;;;;;5043764;28;20055;-65
2023/03/11 04:23:34;;;;;;;17.17;15.07;;;;;;;;;;5050697;28;20049;-65
2023/03/11 04:26:01;;;;;;;16.60;14.88;;;;;;;;;;5041676;28;20051;-65
2023/03/11 04:28:27;;;;;;;17.20;15.20;;;;;;;;;;5051551;28;20049;-65
2023/03/11 04:30:54;;;;;;;16.65;14.98;;;;;;;;;;5040387;28;20053;-65
2023/03/11 04:33:20;;;;;;;16.15;14.50;;;;;;;;;;5051329;28;20053;-65
2023/03/11 04:35:47;;;;;;;16.08;14.38;;;;;;;;;;5039666;28;20059;-65
2023/03/11 04:38:13;;;;;;;15.98;14.30;;;;;;;;;;5051501;28;20129;-65
2023/03/11 04:40:39;;;;;;;13.57;12.23;;;;;;;;;;5038710;28;20050;-65
2023/03/11 04:43:06;;;;;;;14.70;12.82;;;;;;;;;;5051538;28;20045;-65
2023/03/11 04:45:32;;;;;;;14.02;12.55;;;;;;;;;;5026956;28;20053;-65
2023/03/11 04:47:58;;;;;;;16.10;13.02;;;;;;;;;;5051251;28;20492;-65
2023/03/11 04:50:25;;;;;;;15.35;13.35;;;;;;;;;;5028945;28;20153;-65
2023/03/11 04:52:51;;;;;;;13.77;12.05;;;;;;;;;;5048193;28;20091;-65
2023/03/11 04:55:18;;;;;;;14.60;12.10;;;;;;;;;;5039871;28;20049;-65
2023/03/11 04:57:44;;;;;;;14.48;12.98;;;;;;;;;;5049302;28;20497;-65
2023/03/11 05:00:11;;;;;;;15.75;12.45;;;;;;;;;;5045061;28;20050;-65
2023/03/11 05:02:38;;;;;;;14.68;12.38;;;;;;;;;;5049919;28;20055;-65
2023/03/11 05:05:05;;;;;;;14.15;12.57;;;;;;;;;;5051990;28;20053;-65
2023/03/11 05:07:32;;;;;;;13.77;12.00;;;;;;;;;;5054955;28;20053;-65
2023/03/11 05:09:58;;;;;;;12.93;11.57;;;;;;;;;;5050327;28;20091;-65
2023/03/11 05:12:24;;;;;;;15.15;11.82;;;;;;;;;;5055300;28;20761;-65
2023/03/11 05:14:51;;;;;;;13.30;10.32;;;;;;;;;;5048811;28;20052;-65
2023/03/11 05:17:18;;;;;;;10.82;9.63;;;;;;;;;;5054751;28;20088;-65
2023/03/11 05:19:45;;;;;;;11.70;9.32;;;;;;;;;;5049436;28;20048;-65
2023/03/11 05:22:11;;;;;;;9.98;8.65;;;;;;;;;;5051448;28;20049;-65
2023/03/11 05:24:38;;;;;;;10.95;9.77;;;;;;;;;;5045528;28;20462;-65
2023/03/11 05:27:04;;;;;;;9.77;8.35;;;;;;;;;;5026764;28;20049;-65
2023/03/11 05:29:31;;;;;;;11.60;9.32;;;;;;;;;;5049355;28;20100;-65
2023/03/11 05:31:57;;;;;;;12.07;9.02;;;;;;;;;;5051303;28;20088;-65
2023/03/11 05:34:23;;;;;;;10.30;9.13;;;;;;;;;;5049196;28;20057;-65
2023/03/11 05:36:50;;;;;;;11.10;9.05;;;;;;;;;;5039413;28;20057;-65
2023/03/11 05:39:16;;;;;;;10.32;8.93;;;;;;;;;;5051112;28;20404;-65
2023/03/11 05:41:43;;;;;;;9.55;8.55;;;;;;;;;;5044714;28;20056;-65
2023/03/11 05:44:09;;;;;;;12.55;8.90;;;;;;;;;;5052789;28;20055;-65
2023/03/11 05:46:35;;;;;;;11.60;8.95;;;;;;;;;;5031708;28;20052;-65
2023/03/11 05:49:02;;;;;;;9.60;8.63;;;;;;;;;;5054328;28;20063;-65
2023/03/11 05:51:28;;;;;;;9.05;8.15;;;;;;;;;;5027342;28;20415;-65
2023/03/11 05:53:55;;;;;;;10.18;8.98;;;;;;;;;;5054303;28;20144;-65
2023/03/11 05:56:22;;;;;;;10.10;8.50;;;;;;;;;;5038934;28;20083;-65
2023/03/11 05:58:49;;;;;;;11.90;8.60;;;;;;;;;;5053861;28;20051;-65
2023/03/11 06:01:16;;;;;;;8.88;7.97;;;;;;;;;;5037445;28;20045;-65
2023/03/11 06:03:42;;;;;;;10.32;8.30;;;;;;;;;;5053481;28;20053;-65
2023/03/11 06:06:10;;;;;;;10.85;8.70;;;;;;;;;;5051063;28;20080;-65
2023/03/11 06:08:37;;;;;;;9.57;8.57;;;;;;;;;;5053025;28;20056;-65
2023/03/11 06:11:05;;;;;;;9.02;7.80;;;;;;;;;;5050045;28;20049;-65
2023/03/11 06:13:31;;;;;;;10.65;8.20;;;;;;;;;;5054006;28;20048;-65
2023/03/11 06:15:58;;;;;;;10.43;7.70;;;;;;;;;;5049365;28;20060;-65
2023/03/11 06:18:27;;;;;;;10.38;7.05;;;;;;;;;;5052140;28;20045;-65
2023/03/11 06:20:56;;;;;;;9.63;7.80;;;;;;;;;;5047953;28;20048;-65
2023/03/11 06:23:22;;;;;;;9.13;8.23;;;;;;;;;;5051091;28;20045;-65
2023/03/11 06:25:56;;;;;;;11.93;8.48;;;;;;;;;;5043807;28;20132;-65
2023/03/11 06:28:22;;;;;;;11.40;7.97;;;;;;;;;;5053397;28;20049;-65
2023/03/11 06:30:49;;;;;;;8.60;7.70;;;;;;;;;;5046237;28;20049;-65
2023/03/11 06:33:15;;;;;;;10.27;7.40;;;;;;;;;;5053256;28;20059;-65
2023/03/11 06:35:41;;;;;;;10.50;8.00;;;;;;;;;;5041275;28;20049;-65
2023/03/11 06:38:08;;;;;;;9.77;7.00;;;;;;;;;;5053317;28;20057;-65
2023/03/11 06:40:36;;;;;;;10.52;7.25;;;;;;;;;;5030868;28;20050;-65
2023/03/11 06:43:02;;;;;;;9.77;7.20;;;;;;;;;;5052873;28;20052;-65
2023/03/11 06:45:28;;;;;;;9.35;7.32;;;;;;;;;;5040021;28;20045;-65
2023/03/11 06:47:55;;;;;;;8.93;6.97;;;;;;;;;;5052665;28;20492;-65
2023/03/11 06:50:22;;;;;;;8.32;6.55;;;;;;;;;;5031542;28;20065;-65
2023/03/11 06:52:49;;;;;;;9.68;6.97;;;;;;;;;;5048994;28;20504;-65
2023/03/11 06:55:15;;;;;;;7.60;6.63;;;;;;;;;;5033466;28;20057;-65
2023/03/11 06:57:43;;;;;;;12.23;8.15;;;;;;;;;;5045553;28;20056;-65
2023/03/11 07:00:13;;;;;;;11.40;7.55;;;;;;;;;;5043281;28;20045;-65
2023/03/11 07:02:39;;;;;;;8.20;6.82;;;;;;;;;;5048029;28;20135;-65
2023/03/11 07:05:06;;;;;;;10.13;6.75;;;;;;;;;;5050142;28;20046;-65
2023/03/11 07:07:32;;;;;;;9.48;6.65;;;;;;;;;;5052753;28;20449;-65
2023/03/11 07:09:59;;;;;;;6.95;6.20;;;;;;;;;;5048803;28;20507;-65
2023/03/11 07:12:25;;;;;;;9.75;6.25;;;;;;;;;;5052797;28;20057;-65
2023/03/11 07:14:55;;;;;;;9.18;7.32;;;;;;;;;;5046527;28;20041;-65
2023/03/11 07:17:21;;;;;;;8.38;7.00;;;;;;;;;;5052780;28;20049;-65
2023/03/11 07:19:48;;;;;;;10.52;7.85;;;;;;;;;;5046666;28;20053;-65
2023/03/11 07:22:15;;;;;;;12.55;9.43;;;;;;;;;;5049324;28;20045;-65
2023/03/11 07:24:46;;;;;;;14.13;9.70;;;;;;;;;;5042677;28;20050;-65
2023/03/11 07:27:12;;;;;;;11.60;9.48;;;;;;;;;;5052196;28;20132;-65
2023/03/11 07:29:39;;;;;;;11.02;8.45;;;;;;;;;;5046361;28;20049;-65
2023/03/11 07:32:06;;;;;;;12.65;9.13;;;;;;;;;;5051177;28;20124;-65
2023/03/11 07:34:33;;;;;;;8.95;7.47;;;;;;;;;;5047209;28;20049;-65
2023/03/11 07:36:59;;;;;;;10.48;6.22;;;;;;;;;;5032206;28;20057;-65
2023/03/11 07:39:25;;;;;;;6.90;6.15;;;;;;;;;;5043702;28;20131;-65
2023/03/11 07:41:52;;;;;;;8.13;6.18;;;;;;;;;;5049481;28;20053;-65
2023/03/11 07:44:18;;;;;;;10.30;5.82;;;;;;;;;;5051579;28;20049;-65
2023/03/11 07:46:45;;;;;;;6.70;5.68;;;;;;;;;;5049884;28;20053;-66
2023/03/11 07:49:12;;;;;;;8.10;5.93;;;;;;;;;;5031673;28;20049;-65
2023/03/11 07:51:43;;;;;;;8.67;5.87;;;;;;;;;;5031378;28;20062;-66
2023/03/11 07:54:10;;;;;;;6.72;4.85;;;;;;;;;;5031536;28;20290;-65
2023/03/11 07:56:37;;;;;;;10.25;5.57;;;;;;;;;;5031706;28;20053;-65
2023/03/11 07:59:04;;;;;;;9.80;5.72;;;;;;;;;;5031096;28;20501;-65
2023/03/11 08:01:39;;;;;;;10.18;4.82;;;;;;;;;;5031259;28;20049;-65
2023/03/11 08:04:07;;;;;;;8.02;5.18;;;;;;;;;;5039989;28;20052;-66
2023/03/11 08:06:35;;;;;;;6.30;4.50;;;;;;;;;;5051532;28;20356;-65
2023/03/11 08:09:03;;;;;;;7.80;4.38;;;;;;;;;;5051014;28;20103;-65
2023/03/11 08:11:30;;;;;;;8.63;4.95;;;;;;;;;;5037252;28;20049;-65
2023/03/11 08:13:56;;;;;;;5.65;4.53;;;;;;;;;;5031238;28;20050;-66
2023/03/11 08:16:23;;;;;;;6.20;4.90;;;;;;;;;;5031130;28;20493;-65
2023/03/11 08:18:50;;;;;;;7.10;4.80;;;;;;;;;;5032646;28;20492;-65
2023/03/11 08:21:18;;;;;;;8.38;4.68;;;;;;;;;;5030955;28;20138;-65
2023/03/11 08:23:45;;;;;;;7.78;4.95;;;;;;;;;;5031340;28;20051;-66
2023/03/11 08:26:12;;;;;;;11.18;4.90;;;;;;;;;;5031137;28;20073;-65
2023/03/11 08:28:39;;;;;;;7.85;5.18;;;;;;;;;;5030815;28;20050;-65
2023/03/11 08:31:19;;;;;;;7.22;4.78;;;;;;;;;;5030875;28;20405;-65
2023/03/11 08:33:48;;;;;;;7.00;4.57;;;;;;;;;;5050013;28;20434;-65
2023/03/11 08:36:16;;;;;;;9.05;5.40;;;;;;;;;;5055645;28;20053;-65
2023/03/11 08:38:42;;;;;;;8.68;5.53;;;;;;;;;;5055082;28;20076;-65
2023/03/11 08:41:09;;;;;;;7.82;5.70;;;;;;;;;;5044075;28;20060;-64
2023/03/11 08:43:35;;;;;;;7.20;5.35;;;;;;;;;;5036770;28;20041;-66
2023/03/11 08:46:03;;;;;;;7.97;5.50;;;;;;;;;;5055072;28;20041;-65
2023/03/11 08:48:29;;;;;;;7.53;4.80;;;;;;;;;;5043428;28;20048;-64
2023/03/11 08:50:56;;;;;;;8.23;5.15;;;;;;;;;;5047371;28;20048;-64
2023/03/11 08:53:22;;;;;;;5.63;5.03;;;;;;;;;;5034974;28;20083;-64
2023/03/11 08:55:49;;;;;;;9.88;5.55;;;;;;;;;;5034921;28;20084;-65
2023/03/11 08:58:15;;;;;;;8.45;5.68;;;;;;;;;;5034884;28;20061;-65
2023/03/11 09:00:42;;;;;;;8.13;5.20;;;;;;;;;;5034476;28;20490;-65
2023/03/11 09:03:08;;;;;;;8.02;5.43;;;;;;;;;;5034506;28;20057;-65
2023/03/11 09:05:35;;;;;;;5.65;5.10;;;;;;;;;;5050595;28;20579;-65
2023/03/11 09:08:02;;;;;;;9.35;5.45;;;;;;;;;;5043130;28;20080;-65
2023/03/11 09:10:31;;;;;;;9.13;5.95;;;;;;;;;;5040220;28;20122;-65
2023/03/11 09:12:57;;;;;;;10.43;6.47;;;;;;;;;;5054265;28;20057;-66
2023/03/11 09:15:23;;;;;;;10.02;5.82;;;;;;;;;;5039695;28;20423;-65
2023/03/11 09:17:50;;;;;;;9.00;5.70;;;;;;;;;;5037536;28;20142;-64
2023/03/11 09:20:16;;;;;;;8.40;5.20;;;;;;;;;;5034423;28;20041;-65
2023/03/11 09:22:43;;;;;;;7.72;4.88;;;;;;;;;;5034034;28;20493;-65
2023/03/11 09:25:10;;;;;;;7.68;5.07;;;;;;;;;;5034227;28;20052;-65
2023/03/11 09:27:37;;;;;;;7.55;4.97;;;;;;;;;;5034357;28;20047;-65
2023/03/11 09:30:03;;;;;;;8.48;4.90;;;;;;;;;;5033891;28;20060;-65
2023/03/11 09:32:30;;;;;;;8.15;5.40;;;;;;;;;;5038794;28;20142;-64
2023/03/11 09:34:56;;;;;;;15.27;6.10;;;;;;;;;;5052849;28;20048;-65
2023/03/11 09:37:23;;;;;;;10.20;5.35;;;;;;;;;;5053915;28;20075;-64
2023/03/11 09:39:49;;;;;;;7.32;5.40;;;;;;;;;;5053600;28;20047;-64
2023/03/11 09:42:19;;;;;;;6.35;4.80;;;;;;;;;;5050327;28;20052;-64
2023/03/11 09:45:11;;;;;;;6.00;4.65;;;;;;;;;;5033488;28;20049;-63
2023/03/11 09:47:54;;;;;;;10.60;5.22;;;;;;;;;;5029187;28;20045;-64
2023/03/11 09:50:33;;;;;;;8.18;4.47;;;;;;;;;;5048345;28;20044;-64
2023/03/11 09:53:09;;;;;;;5.13;4.63;;;;;;;;;;5030709;28;20054;-64
2023/03/11 09:55:38;;;;;;;8.88;4.70;;;;;;;;;;5031005;28;20053;-63
2023/03/11 09:58:18;;;;;;;7.57;4.68;;;;;;;;;;5033906;28;20053;-64
2023/03/11 10:00:45;;;;;;;6.40;4.50;;;;;;;;;;5037956;28;20056;-65
2023/03/11 10:03:16;;;;;;;6.63;4.40;;;;;;;;;;5052014;28;20135;-64
2023/03/11 10:05:43;;;;;;;6.28;3.90;;;;;;;;;;5033614;28;20050;-64
2023/03/11 10:08:20;;;;;;;7.47;4.38;;;;;;;;;;5043615;28;20045;-63
2023/03/11 10:10:53;;;;;;;8.13;4.32;;;;;;;;;;5033311;28;20056;-65
2023/03/11 10:13:19;;;;;;;6.18;4.20;;;;;;;;;;5038058;28;20045;-64
2023/03/11 10:16:00;;;;;;;5.90;3.80;;;;;;;;;;5049522;28;20045;-65
2023/03/11 10:18:46;;;;;;;5.95;4.03;;;;;;;;;;5036271;28;20057;-65
2023/03/11 10:21:19;;;;;;;6.30;3.90;;;;;;;;;;5034232;28;20476;-65
2023/03/11 10:23:48;;;;;;;5.60;3.42;;;;;;;;;;5040309;28;20047;-65
2023/03/11 10:26:18;;;;;;;6.63;3.58;;;;;;;;;;5035391;28;20045;-65
2023/03/11 10:28:45;;;;;;;7.07;4.18;;;;;;;;;;5053149;28;20049;-67
2023/03/11 10:31:17;;;;;;;7.40;4.07;;;;;;;;;;5052980;28;20052;-66
2023/03/11 10:33:53;;;;;;;5.50;4.07;;;;;;;;;;5045326;28;20313;-67
2023/03/11 10:36:23;;;;;;;7.03;3.30;;;;;;;;;;5050706;28;20500;-68
2023/03/11 10:38:51;;;;;;;3.83;2.60;;;;;;;;;;5044318;28;20378;-65
2023/03/11 10:41:20;;;;;;;3.47;2.03;;;;;;;;;;5047034;28;20059;-68
2023/03/11 10:43:53;;;;;;;2.72;2.20;;;;;;;;;;5050823;28;20041;-66
2023/03/11 10:46:25;;;;;;;4.65;2.08;;;;;;;;;;5052461;28;20045;-67
2023/03/11 10:48:51;;;;;;;2.63;1.77;;;;;;;;;;5050652;28;20041;-67
2023/03/11 10:51:21;;;;;;;3.05;1.77;;;;;;;;;;5046187;28;20057;-67
2023/03/11 10:53:50;;;;;;;3.75;1.85;;;;;;;;;;5035209;28;20073;-67
2023/03/11 10:56:27;;;;;;;5.38;2.40;;;;;;;;;;5048948;28;20048;-66
2023/03/11 10:58:53;;;;;;;5.28;2.85;;;;;;;;;;5052389;28;20048;-66
2023/03/11 11:01:20;;;;;;;4.70;2.50;;;;;;;;;;5052212;28;20057;-66
2023/03/11 11:03:48;;;;;;;2.67;1.77;;;;;;;;;;5052435;28;20052;-66
2023/03/11 11:06:18;;;;;;;4.22;2.00;;;;;;;;;;5052354;28;20053;-66
2023/03/11 11:08:44;;;;;;;1.95;1.65;;;;;;;;;;5052339;28;20043;-66
2023/03/11 11:11:21;;;;;;;4.32;1.58;;;;;;;;;;5052382;28;20499;-66
2023/03/11 11:13:58;;;;;;;2.77;1.60;;;;;;;;;;5052097;28;20055;-66
2023/03/11 11:16:25;;;;;;;4.00;1.90;;;;;;;;;;5051952;28;20061;-66
2023/03/11 11:18:51;;;;;;;2.92;1.30;;;;;;;;;;5052174;28;20281;-66
2023/03/11 11:21:29;;;;;;;3.22;1.45;;;;;;;;;;5039322;28;20509;-66
2023/03/11 11:24:05;;;;;;;2.22;1.10;;;;;;;;;;5019449;28;20046;-66
2023/03/11 11:26:31;;;;;;;3.63;1.58;;;;;;;;;;5046720;28;20131;-66
2023/03/11 11:29:09;;;;;;;2.58;1.48;;;;;;;;;;5051885;28;20067;-66
2023/03/11 11:31:37;;;;;;;2.05;1.00;;;;;;;;;;5052224;28;20059;-66
2023/03/11 11:34:21;;;;;;;2.78;1.15;;;;;;;;;;5051589;28;20098;-67
2023/03/11 11:36:48;;;;;;;2.78;1.10;;;;;;;;;;5052012;28;20135;-66
2023/03/11 11:39:17;;;;;;;4.28;1.30;;;;;;;;;;5051478;28;20420;-66
2023/03/11 11:41:44;;;;;;;2.83;1.20;;;;;;;;;;5049402;28;20132;-66
2023/03/11 11:44:14;;;;;;;4.53;1.30;;;;;;;;;;5051917;28;20041;-66
2023/03/11 11:46:53;;;;;;;1.85;1.17;;;;;;;;;;5051685;28;20040;-66
2023/03/11 11:49:21;;;;;;;3.25;1.20;;;;;;;;;;5040399;28;20044;-66
2023/03/11 11:51:53;;;;;;;2.58;1.40;;;;;;;;;;5051190;28;20087;-66
2023/03/11 11:54:43;;;;;;;3.28;1.10;;;;;;;;;;5051214;28;20052;-66
2023/03/11 11:57:11;;;;;;;4.47;1.20;;;;;;;;;;5032201;28;20445;-66
2023/03/11 11:59:38;;;;;;;3.30;1.50;;;;;;;;;;5031357;28;20049;-65
2023/03/11 12:02:23;;;;;;;1.70;1.03;;;;;;;;;;5031305;28;20046;-66
2023/03/11 12:04:59;;;;;;;3.10;1.02;;;;;;;;;;5043321;28;20055;-66
2023/03/11 12:07:28;;;;;;;2.38;1.23;;;;;;;;;;5050287;28;20120;-66
2023/03/11 12:10:13;;;;;;;1.90;0.70;;;;;;;;;;5051271;28;20053;-65
2023/03/11 12:13:07;;;;;;;2.42;0.80;;;;;;;;;;5051067;28;20091;-66
2023/03/11 12:15:39;;;;;;;3.70;0.82;;;;;;;;;;5051138;28;20049;-66
2023/03/11 12:18:09;;;;;;;2.63;0.80;;;;;;;;;;5051026;28;20102;-66
2023/03/11 12:20:38;;;;;;;2.35;0.70;;;;;;;;;;5051180;28;20067;-66
2023/03/11 12:23:14;;;;;;;2.20;0.60;;;;;;;;;;5040894;28;20053;-66
2023/03/11 12:25:45;;;;;;;1.95;0.88;;;;;;;;;;5051133;28;20059;-64
2023/03/11 12:28:21;;;;;;;2.70;0.77;;;;;;;;;;5051444;28;20063;-66
2023/03/11 12:30:49;;;;;;;2.85;1.00;;;;;;;;;;5050985;28;20049;-66
2023/03/11 12:33:23;;;;;;;2.03;0.93;;;;;;;;;;5051178;28;20405;-65
2023/03/11 12:35:54;;;;;;;4.13;1.17;;;;;;;;;;5050965;28;20124;-63
2023/03/11 12:38:24;;;;;;;2.10;0.90;;;;;;;;;;5051192;28;20057;-64
2023/03/11 12:40:58;;;;;;;2.47;0.98;;;;;;;;;;5050849;28;20579;-66
2023/03/11 12:43:34;;;;;;;3.05;0.82;;;;;;;;;;5049287;28;20056;-65
2023/03/11 12:46:04;;;;;;;1.65;0.90;;;;;;;;;;5050932;28;20103;-67
2023/03/11 12:48:35;;;;;;;2.95;1.00;;;;;;;;;;5043477;28;20060;-65
2023/03/11 12:51:01;;;;;;;3.75;1.08;;;;;;;;;;5047844;28;20139;-67
2023/03/11 12:53:41;;;;;;;4.32;1.20;;;;;;;;;;5050707;28;20063;-66
2023/03/11 12:56:10;;;;;;;3.50;1.40;;;;;;;;;;5050847;28;20079;-65
2023/03/11 12:58:51;;;;;;;2.47;1.20;;;;;;;;;;5050891;28;20049;-62
2023/03/11 13:01:28;;;;;;;2.38;1.33;;;;;;;;;;5050897;28;20131;-65
2023/03/11 13:03:57;;;;;;;3.33;1.30;;;;;;;;;;5035472;28;20514;-66
2023/03/11 13:06:38;;;;;;;3.08;1.17;;;;;;;;;;5030920;28;20049;-65
2023/03/11 13:09:12;;;;;;;4.78;1.40;;;;;;;;;;5030891;28;20404;-65
2023/03/11 13:11:43;;;;;;;2.38;1.40;;;;;;;;;;5030911;28;20128;-65
2023/03/11 13:14:13;;;;;;;3.67;1.33;;;;;;;;;;5029397;28;20137;-65
2023/03/11 13:16:39;;;;;;;1.70;1.35;;;;;;;;;;5030271;28;20053;-65
2023/03/11 13:19:26;;;;;;;4.15;1.45;;;;;;;;;;5036569;28;20122;-65
2023/03/11 13:21:53;;;;;;;2.97;1.67;;;;;;;;;;5033865;28;20573;-66
2023/03/11 13:24:20;;;;;;;5.22;1.90;;;;;;;;;;5034066;28;20050;-65
2023/03/11 13:27:00;;;;;;;3.65;1.60;;;;;;;;;;5034106;28;20052;-66
2023/03/11 13:29:38;;;;;;;3.72;1.55;;;;;;;;;;5034069;28;20050;-66
2023/03/11 13:32:20;;;;;;;4.38;1.83;;;;;;;;;;5035666;28;20132;-65
2023/03/11 13:35:10;;;;;;;4.63;1.67;;;;;;;;;;5054100;28;20053;-65
2023/03/11 13:37:39;;;;;;;2.45;1.48;;;;;;;;;;5053891;28;20056;-65
2023/03/11 13:40:26;;;;;;;3.40;1.80;;;;;;;;;;5053943;28;20048;-66
2023/03/11 13:42:54;;;;;;;3.85;2.00;;;;;;;;;;5051574;28;20417;-66
2023/03/11 13:45:26;;;;;;;3.70;1.85;;;;;;;;;;5053937;28;20055;-65
2023/03/11 13:47:55;;;;;;;3.55;1.80;;;;;;;;;;5034056;28;20045;-65
2023/03/11 13:50:35;;;;;;;3.53;2.00;;;;;;;;;;5039536;28;20053;-65
2023/03/11 13:53:06;;;;;;;4.32;2.25;;;;;;;;;;5041367;28;20103;-65
2023/03/11 13:55:45;;;;;;;7.05;2.70;;;;;;;;;;5032418;28;20053;-65
2023/03/11 13:58:16;;;;;;;4.20;2.53;;;;;;;;;;5033679;28;20053;-65
2023/03/11 14:00:46;;;;;;;2.50;2.30;;;;;;;;;;5033934;28;20085;-65
2023/03/11 14:03:13;;;;;;;2.97;2.53;;;;;;;;;;5035861;28;20485;-65
2023/03/11 14:05:45;;;;;;;2.95;2.40;;;;;;;;;;5053634;28;20124;-66
2023/03/11 14:08:11;;;;;;;6.18;2.80;;;;;;;;;;5046604;28;20463;-65
2023/03/11 14:10:37;;;;;;;4.05;2.38;;;;;;;;;;5046954;28;20128;-66
2023/03/11 14:13:15;;;;;;;4.80;2.80;;;;;;;;;;5046667;28;20128;-65
2023/03/11 14:16:02;;;;;;;4.57;2.65;;;;;;;;;;5046951;28;20058;-66
2023/03/11 14:18:38;;;;;;;3.95;3.22;;;;;;;;;;5050094;28;20088;-65
2023/03/11 14:21:08;;;;;;;6.32;2.50;;;;;;;;;;5038675;28;20054;-66
2023/03/11 14:23:39;;;;;;;6.10;2.20;;;;;;;;;;5049449;28;20053;-65
2023/03/11 14:26:07;;;;;;;5.32;2.38;;;;;;;;;;5043939;28;20077;-65
2023/03/11 14:28:33;;;;;;;;;;;;;;;;;;5048976;28;20140;-65
2023/03/11 14:31:00;;;;;;;3.78;2.33;;;;;;;;;;5044192;28;19921;-65
2023/03/11 14:33:27;;;;;;;4.22;2.53;;;;;;;;;;5046699;28;20607;-65
2023/03/11 14:35:55;;;;;;;5.82;2.65;;;;;;;;;;5049585;28;20047;-65
2023/03/11 14:38:23;;;;;;;4.30;2.80;;;;;;;;;;5053306;28;20493;-65
2023/03/11 14:40:51;;;;;;;4.05;2.42;;;;;;;;;;5048930;28;20511;-65
2023/03/11 14:43:20;;;;;;;4.20;2.30;;;;;;;;;;5053304;28;20124;-65